sensor_id;sensor_type;location;lat;lon;timestamp;P1;durP1;ratioP1;P2;durP2;ratioP2
67248;SDS011;63247;54.300;18.592;2023-05-10T00:01:22;10.77;;;4.53;;
67248;SDS011;63247;54.300;18.592;2023-05-10T00:03:48;12.30;;;4.57;;
67248;SDS011;63247;54.300;18.592;2023-05-10T00:06:13;8.02;;;4.03;;
67248;SDS011;63247;54.300;18.592;2023-05-10T00:08:39;9.87;;;4.57;;
67248;SDS011;63247;54.300;18.592;2023-05-10T00:11:04;10.40;;;4.37;;
67248;SDS011;63247;54.300;18.592;2023-05-10T00:13:31;11.27;;;4.70;;
67248;SDS011;63247;54.300;18.592;2023-05-10T00:15:57;9.07;;;4.38;;
67248;SDS011;63247;54.300;18.592;2023-05-10T00:18:22;9.50;;;3.97;;
67248;SDS011;63247;54.300;18.592;2023-05-10T00:20:47;11.53;;;4.53;;
67248;SDS011;63247;54.300;18.592;2023-05-10T00:23:13;9.57;;;4.30;;
67248;SDS011;63247;54.300;18.592;2023-05-10T00:25:39;9.82;;;4.20;;
67248;SDS011;63247;54.300;18.592;2023-05-10T00:28:04;9.57;;;4.40;;
67248;SDS011;63247;54.300;18.592;2023-05-10T00:30:30;11.70;;;4.03;;
67248;SDS011;63247;54.300;18.592;2023-05-10T00:32:55;11.45;;;4.30;;
67248;SDS011;63247;54.300;18.592;2023-05-10T00:35:21;11.32;;;4.15;;
67248;SDS011;63247;54.300;18.592;2023-05-10T00:37:46;10.97;;;4.70;;
67248;SDS011;63247;54.300;18.592;2023-05-10T00:40:12;14.77;;;4.93;;
67248;SDS011;63247;54.300;18.592;2023-05-10T00:42:38;13.85;;;4.63;;
67248;SDS011;63247;54.300;18.592;2023-05-10T00:45:03;13.07;;;4.90;;
67248;SDS011;63247;54.300;18.592;2023-05-10T00:47:29;11.80;;;4.65;;
67248;SDS011;63247;54.300;18.592;2023-05-10T00:49:55;11.57;;;4.43;;
67248;SDS011;63247;54.300;18.592;2023-05-10T00:52:21;13.15;;;4.78;;
67248;SDS011;63247;54.300;18.592;2023-05-10T00:54:49;13.32;;;4.55;;
67248;SDS011;63247;54.300;18.592;2023-05-10T00:57:15;13.27;;;4.70;;
67248;SDS011;63247;54.300;18.592;2023-05-10T00:59:40;12.90;;;5.15;;
67248;SDS011;63247;54.300;18.592;2023-05-10T01:02:06;13.20;;;4.83;;
67248;SDS011;63247;54.300;18.592;2023-05-10T01:04:31;12.67;;;4.90;;
67248;SDS011;63247;54.300;18.592;2023-05-10T01:06:57;13.95;;;4.82;;
67248;SDS011;63247;54.300;18.592;2023-05-10T01:09:23;11.37;;;4.83;;
67248;SDS011;63247;54.300;18.592;2023-05-10T01:11:51;11.48;;;5.18;;
67248;SDS011;63247;54.300;18.592;2023-05-10T01:14:18;12.95;;;4.97;;
67248;SDS011;63247;54.300;18.592;2023-05-10T01:16:44;12.88;;;5.00;;
67248;SDS011;63247;54.300;18.592;2023-05-10T01:27:33;10.65;;;4.65;;
67248;SDS011;63247;54.300;18.592;2023-05-10T01:39:02;11.32;;;5.13;;
67248;SDS011;63247;54.300;18.592;2023-05-10T01:47:30;10.73;;;5.03;;
67248;SDS011;63247;54.300;18.592;2023-05-10T01:49:58;12.00;;;4.45;;
67248;SDS011;63247;54.300;18.592;2023-05-10T01:52:30;14.95;;;5.88;;
67248;SDS011;63247;54.300;18.592;2023-05-10T01:55:02;12.38;;;5.47;;
67248;SDS011;63247;54.300;18.592;2023-05-10T01:57:34;15.73;;;5.30;;
67248;SDS011;63247;54.300;18.592;2023-05-10T02:00:04;12.30;;;5.67;;
67248;SDS011;63247;54.300;18.592;2023-05-10T02:02:33;13.27;;;5.22;;
67248;SDS011;63247;54.300;18.592;2023-05-10T02:05:02;13.68;;;5.30;;
67248;SDS011;63247;54.300;18.592;2023-05-10T02:07:30;12.27;;;4.85;;
67248;SDS011;63247;54.300;18.592;2023-05-10T02:09:58;10.48;;;5.07;;
67248;SDS011;63247;54.300;18.592;2023-05-10T02:12:24;11.80;;;5.00;;
67248;SDS011;63247;54.300;18.592;2023-05-10T02:14:52;17.00;;;5.90;;
67248;SDS011;63247;54.300;18.592;2023-05-10T02:17:19;18.42;;;7.18;;
67248;SDS011;63247;54.300;18.592;2023-05-10T02:19:44;24.08;;;9.38;;
67248;SDS011;63247;54.300;18.592;2023-05-10T02:22:12;28.20;;;10.80;;
67248;SDS011;63247;54.300;18.592;2023-05-10T02:24:38;28.30;;;11.43;;
67248;SDS011;63247;54.300;18.592;2023-05-10T02:27:05;41.92;;;15.50;;
67248;SDS011;63247;54.300;18.592;2023-05-10T02:29:32;49.38;;;18.42;;
67248;SDS011;63247;54.300;18.592;2023-05-10T02:31:58;48.33;;;16.83;;
67248;SDS011;63247;54.300;18.592;2023-05-10T02:34:27;45.13;;;16.55;;
67248;SDS011;63247;54.300;18.592;2023-05-10T02:36:54;41.50;;;14.63;;
67248;SDS011;63247;54.300;18.592;2023-05-10T02:39:21;26.33;;;8.35;;
67248;SDS011;63247;54.300;18.592;2023-05-10T02:41:48;19.30;;;7.13;;
67248;SDS011;63247;54.300;18.592;2023-05-10T02:44:14;19.45;;;7.85;;
67248;SDS011;63247;54.300;18.592;2023-05-10T02:46:42;19.83;;;7.95;;
67248;SDS011;63247;54.300;18.592;2023-05-10T02:49:08;24.53;;;7.80;;
67248;SDS011;63247;54.300;18.592;2023-05-10T02:51:34;22.70;;;8.48;;
67248;SDS011;63247;54.300;18.592;2023-05-10T02:54:04;19.63;;;6.93;;
67248;SDS011;63247;54.300;18.592;2023-05-10T02:56:34;18.42;;;7.43;;
67248;SDS011;63247;54.300;18.592;2023-05-10T02:59:01;16.33;;;7.22;;
67248;SDS011;63247;54.300;18.592;2023-05-10T03:01:27;23.23;;;7.18;;
67248;SDS011;63247;54.300;18.592;2023-05-10T03:03:52;16.17;;;5.80;;
67248;SDS011;63247;54.300;18.592;2023-05-10T03:06:18;16.57;;;7.07;;
67248;SDS011;63247;54.300;18.592;2023-05-10T03:08:44;18.95;;;7.25;;
67248;SDS011;63247;54.300;18.592;2023-05-10T03:16:29;16.80;;;5.80;;
67248;SDS011;63247;54.300;18.592;2023-05-10T03:19:21;17.08;;;6.45;;
67248;SDS011;63247;54.300;18.592;2023-05-10T03:21:52;14.33;;;6.40;;
67248;SDS011;63247;54.300;18.592;2023-05-10T03:24:20;13.98;;;6.03;;
67248;SDS011;63247;54.300;18.592;2023-05-10T03:26:47;14.35;;;5.97;;
67248;SDS011;63247;54.300;18.592;2023-05-10T03:29:14;14.02;;;5.68;;
67248;SDS011;63247;54.300;18.592;2023-05-10T03:31:41;12.50;;;5.40;;
67248;SDS011;63247;54.300;18.592;2023-05-10T03:34:06;12.67;;;5.67;;
67248;SDS011;63247;54.300;18.592;2023-05-10T03:36:32;11.80;;;5.30;;
67248;SDS011;63247;54.300;18.592;2023-05-10T03:38:57;12.23;;;5.63;;
67248;SDS011;63247;54.300;18.592;2023-05-10T03:41:23;12.43;;;5.60;;
67248;SDS011;63247;54.300;18.592;2023-05-10T03:43:48;13.15;;;5.82;;
67248;SDS011;63247;54.300;18.592;2023-05-10T03:46:14;11.48;;;5.10;;
67248;SDS011;63247;54.300;18.592;2023-05-10T03:48:39;12.20;;;5.50;;
67248;SDS011;63247;54.300;18.592;2023-05-10T03:51:05;13.80;;;5.80;;
67248;SDS011;63247;54.300;18.592;2023-05-10T03:53:30;12.77;;;5.23;;
67248;SDS011;63247;54.300;18.592;2023-05-10T03:55:55;14.25;;;6.22;;
67248;SDS011;63247;54.300;18.592;2023-05-10T03:58:21;14.75;;;5.30;;
67248;SDS011;63247;54.300;18.592;2023-05-10T04:00:47;13.70;;;5.00;;
67248;SDS011;63247;54.300;18.592;2023-05-10T04:03:12;13.45;;;5.53;;
67248;SDS011;63247;54.300;18.592;2023-05-10T04:05:38;15.43;;;5.73;;
67248;SDS011;63247;54.300;18.592;2023-05-10T04:08:03;17.07;;;6.00;;
67248;SDS011;63247;54.300;18.592;2023-05-10T04:10:29;13.93;;;6.00;;
67248;SDS011;63247;54.300;18.592;2023-05-10T04:12:55;11.90;;;5.67;;
67248;SDS011;63247;54.300;18.592;2023-05-10T04:15:20;14.70;;;5.13;;
67248;SDS011;63247;54.300;18.592;2023-05-10T04:17:46;11.63;;;5.50;;
67248;SDS011;63247;54.300;18.592;2023-05-10T04:20:11;11.03;;;5.50;;
67248;SDS011;63247;54.300;18.592;2023-05-10T04:22:37;11.80;;;6.20;;
67248;SDS011;63247;54.300;18.592;2023-05-10T04:25:02;14.80;;;5.65;;
67248;SDS011;63247;54.300;18.592;2023-05-10T04:27:29;13.63;;;5.53;;
67248;SDS011;63247;54.300;18.592;2023-05-10T04:29:54;14.57;;;5.40;;
67248;SDS011;63247;54.300;18.592;2023-05-10T04:32:20;11.50;;;5.50;;
67248;SDS011;63247;54.300;18.592;2023-05-10T04:34:46;12.93;;;5.80;;
67248;SDS011;63247;54.300;18.592;2023-05-10T04:37:11;12.02;;;5.82;;
67248;SDS011;63247;54.300;18.592;2023-05-10T04:39:37;11.27;;;5.33;;
67248;SDS011;63247;54.300;18.592;2023-05-10T04:42:02;14.23;;;6.20;;
67248;SDS011;63247;54.300;18.592;2023-05-10T04:44:28;12.50;;;5.82;;
67248;SDS011;63247;54.300;18.592;2023-05-10T04:46:54;11.65;;;5.70;;
67248;SDS011;63247;54.300;18.592;2023-05-10T04:49:20;12.57;;;6.00;;
67248;SDS011;63247;54.300;18.592;2023-05-10T04:51:45;10.33;;;5.47;;
67248;SDS011;63247;54.300;18.592;2023-05-10T04:54:11;14.52;;;5.75;;
67248;SDS011;63247;54.300;18.592;2023-05-10T04:56:36;13.93;;;6.07;;
67248;SDS011;63247;54.300;18.592;2023-05-10T04:59:01;12.03;;;6.03;;
67248;SDS011;63247;54.300;18.592;2023-05-10T05:01:27;12.70;;;6.30;;
67248;SDS011;63247;54.300;18.592;2023-05-10T05:03:52;13.77;;;6.80;;
67248;SDS011;63247;54.300;18.592;2023-05-10T05:06:18;14.70;;;6.93;;
67248;SDS011;63247;54.300;18.592;2023-05-10T05:08:43;16.40;;;6.87;;
67248;SDS011;63247;54.300;18.592;2023-05-10T05:11:09;12.40;;;6.60;;
67248;SDS011;63247;54.300;18.592;2023-05-10T05:13:34;13.50;;;7.00;;
67248;SDS011;63247;54.300;18.592;2023-05-10T05:16:01;13.73;;;6.80;;
67248;SDS011;63247;54.300;18.592;2023-05-10T05:18:27;12.77;;;6.20;;
67248;SDS011;63247;54.300;18.592;2023-05-10T05:20:53;13.37;;;6.80;;
67248;SDS011;63247;54.300;18.592;2023-05-10T05:23:18;12.30;;;5.50;;
67248;SDS011;63247;54.300;18.592;2023-05-10T05:25:45;13.32;;;6.90;;
67248;SDS011;63247;54.300;18.592;2023-05-10T05:28:11;12.68;;;6.65;;
67248;SDS011;63247;54.300;18.592;2023-05-10T05:30:37;15.20;;;6.93;;
67248;SDS011;63247;54.300;18.592;2023-05-10T05:33:02;13.50;;;7.10;;
67248;SDS011;63247;54.300;18.592;2023-05-10T05:35:28;13.45;;;6.30;;
67248;SDS011;63247;54.300;18.592;2023-05-10T05:37:53;14.50;;;6.83;;
67248;SDS011;63247;54.300;18.592;2023-05-10T05:40:19;10.70;;;6.40;;
67248;SDS011;63247;54.300;18.592;2023-05-10T05:42:45;14.90;;;7.18;;
67248;SDS011;63247;54.300;18.592;2023-05-10T05:45:10;16.03;;;6.60;;
67248;SDS011;63247;54.300;18.592;2023-05-10T05:47:38;13.55;;;6.72;;
67248;SDS011;63247;54.300;18.592;2023-05-10T05:50:04;18.23;;;7.15;;
67248;SDS011;63247;54.300;18.592;2023-05-10T05:52:30;15.30;;;7.15;;
67248;SDS011;63247;54.300;18.592;2023-05-10T05:54:55;22.53;;;7.33;;
67248;SDS011;63247;54.300;18.592;2023-05-10T05:57:21;14.73;;;6.97;;
67248;SDS011;63247;54.300;18.592;2023-05-10T05:59:46;11.60;;;7.20;;
67248;SDS011;63247;54.300;18.592;2023-05-10T06:02:12;15.30;;;6.95;;
67248;SDS011;63247;54.300;18.592;2023-05-10T06:04:37;12.03;;;5.37;;
67248;SDS011;63247;54.300;18.592;2023-05-10T06:07:03;11.15;;;5.75;;
67248;SDS011;63247;54.300;18.592;2023-05-10T06:09:28;10.07;;;5.43;;
67248;SDS011;63247;54.300;18.592;2023-05-10T06:11:53;11.00;;;5.17;;
67248;SDS011;63247;54.300;18.592;2023-05-10T06:14:22;14.53;;;5.73;;
67248;SDS011;63247;54.300;18.592;2023-05-10T06:16:47;11.02;;;5.30;;
67248;SDS011;63247;54.300;18.592;2023-05-10T06:19:13;10.13;;;5.40;;
67248;SDS011;63247;54.300;18.592;2023-05-10T06:21:38;12.70;;;5.40;;
67248;SDS011;63247;54.300;18.592;2023-05-10T06:24:04;15.82;;;5.90;;
67248;SDS011;63247;54.300;18.592;2023-05-10T06:26:31;14.30;;;5.97;;
67248;SDS011;63247;54.300;18.592;2023-05-10T06:28:57;11.18;;;5.10;;
67248;SDS011;63247;54.300;18.592;2023-05-10T06:31:22;11.33;;;5.77;;
67248;SDS011;63247;54.300;18.592;2023-05-10T06:33:48;10.43;;;5.80;;
67248;SDS011;63247;54.300;18.592;2023-05-10T06:36:13;9.50;;;4.90;;
67248;SDS011;63247;54.300;18.592;2023-05-10T06:38:39;11.35;;;5.47;;
67248;SDS011;63247;54.300;18.592;2023-05-10T06:41:04;9.47;;;4.90;;
67248;SDS011;63247;54.300;18.592;2023-05-10T06:43:30;11.70;;;5.30;;
67248;SDS011;63247;54.300;18.592;2023-05-10T06:45:55;9.37;;;5.33;;
67248;SDS011;63247;54.300;18.592;2023-05-10T06:48:21;10.10;;;5.00;;
67248;SDS011;63247;54.300;18.592;2023-05-10T06:50:46;12.73;;;5.13;;
67248;SDS011;63247;54.300;18.592;2023-05-10T06:53:12;8.70;;;4.57;;
67248;SDS011;63247;54.300;18.592;2023-05-10T06:55:38;9.18;;;4.75;;
67248;SDS011;63247;54.300;18.592;2023-05-10T06:58:04;11.17;;;4.93;;
67248;SDS011;63247;54.300;18.592;2023-05-10T07:00:29;10.15;;;4.47;;
67248;SDS011;63247;54.300;18.592;2023-05-10T07:02:55;11.83;;;4.07;;
67248;SDS011;63247;54.300;18.592;2023-05-10T07:05:20;9.67;;;4.30;;
67248;SDS011;63247;54.300;18.592;2023-05-10T07:07:46;7.45;;;4.10;;
67248;SDS011;63247;54.300;18.592;2023-05-10T07:10:11;8.83;;;3.97;;
67248;SDS011;63247;54.300;18.592;2023-05-10T07:12:37;10.00;;;4.07;;
67248;SDS011;63247;54.300;18.592;2023-05-10T07:15:03;14.98;;;4.45;;
67248;SDS011;63247;54.300;18.592;2023-05-10T07:17:29;9.60;;;4.38;;
67248;SDS011;63247;54.300;18.592;2023-05-10T07:19:54;12.73;;;4.13;;
67248;SDS011;63247;54.300;18.592;2023-05-10T07:22:20;8.07;;;3.80;;
67248;SDS011;63247;54.300;18.592;2023-05-10T07:24:45;7.85;;;3.72;;
67248;SDS011;63247;54.300;18.592;2023-05-10T07:27:11;7.83;;;4.30;;
67248;SDS011;63247;54.300;18.592;2023-05-10T07:29:37;9.85;;;3.80;;
67248;SDS011;63247;54.300;18.592;2023-05-10T07:32:03;8.23;;;3.90;;
67248;SDS011;63247;54.300;18.592;2023-05-10T07:34:29;9.15;;;3.83;;
67248;SDS011;63247;54.300;18.592;2023-05-10T07:36:56;9.68;;;4.75;;
67248;SDS011;63247;54.300;18.592;2023-05-10T07:39:23;7.60;;;3.67;;
67248;SDS011;63247;54.300;18.592;2023-05-10T07:41:48;11.95;;;4.50;;
67248;SDS011;63247;54.300;18.592;2023-05-10T07:44:14;8.67;;;3.73;;
67248;SDS011;63247;54.300;18.592;2023-05-10T07:46:39;9.10;;;3.57;;
67248;SDS011;63247;54.300;18.592;2023-05-10T07:49:05;8.45;;;3.63;;
67248;SDS011;63247;54.300;18.592;2023-05-10T07:51:30;6.27;;;3.20;;
67248;SDS011;63247;54.300;18.592;2023-05-10T07:53:56;10.38;;;3.78;;
67248;SDS011;63247;54.300;18.592;2023-05-10T07:56:26;8.98;;;3.50;;
67248;SDS011;63247;54.300;18.592;2023-05-10T07:58:54;6.78;;;3.30;;
67248;SDS011;63247;54.300;18.592;2023-05-10T08:01:20;15.48;;;3.42;;
67248;SDS011;63247;54.300;18.592;2023-05-10T08:03:46;8.93;;;3.42;;
67248;SDS011;63247;54.300;18.592;2023-05-10T08:06:12;10.03;;;3.27;;
67248;SDS011;63247;54.300;18.592;2023-05-10T08:08:38;8.10;;;2.97;;
67248;SDS011;63247;54.300;18.592;2023-05-10T08:11:03;6.53;;;2.73;;
67248;SDS011;63247;54.300;18.592;2023-05-10T08:13:29;9.00;;;3.30;;
67248;SDS011;63247;54.300;18.592;2023-05-10T08:15:54;8.17;;;3.10;;
67248;SDS011;63247;54.300;18.592;2023-05-10T08:18:20;8.77;;;3.50;;
67248;SDS011;63247;54.300;18.592;2023-05-10T08:20:45;6.90;;;3.40;;
67248;SDS011;63247;54.300;18.592;2023-05-10T08:23:14;5.73;;;2.70;;
67248;SDS011;63247;54.300;18.592;2023-05-10T08:25:39;8.85;;;3.20;;
67248;SDS011;63247;54.300;18.592;2023-05-10T08:28:05;8.60;;;3.28;;
67248;SDS011;63247;54.300;18.592;2023-05-10T08:30:30;8.40;;;2.90;;
67248;SDS011;63247;54.300;18.592;2023-05-10T08:32:55;9.53;;;3.50;;
67248;SDS011;63247;54.300;18.592;2023-05-10T08:35:21;6.13;;;3.20;;
67248;SDS011;63247;54.300;18.592;2023-05-10T08:37:46;7.00;;;2.70;;
67248;SDS011;63247;54.300;18.592;2023-05-10T08:40:12;10.73;;;3.05;;
67248;SDS011;63247;54.300;18.592;2023-05-10T08:42:39;7.82;;;3.20;;
67248;SDS011;63247;54.300;18.592;2023-05-10T08:45:08;10.30;;;3.03;;
67248;SDS011;63247;54.300;18.592;2023-05-10T08:47:35;7.50;;;3.13;;
67248;SDS011;63247;54.300;18.592;2023-05-10T08:50:03;5.35;;;2.55;;
67248;SDS011;63247;54.300;18.592;2023-05-10T08:52:29;6.10;;;2.80;;
67248;SDS011;63247;54.300;18.592;2023-05-10T08:54:55;7.28;;;2.53;;
67248;SDS011;63247;54.300;18.592;2023-05-10T08:57:21;10.32;;;2.92;;
67248;SDS011;63247;54.300;18.592;2023-05-10T08:59:47;8.80;;;3.50;;
67248;SDS011;63247;54.300;18.592;2023-05-10T09:02:12;12.83;;;2.70;;
67248;SDS011;63247;54.300;18.592;2023-05-10T09:04:38;8.55;;;3.10;;
67248;SDS011;63247;54.300;18.592;2023-05-10T09:07:04;18.20;;;4.03;;
67248;SDS011;63247;54.300;18.592;2023-05-10T09:09:29;4.57;;;2.10;;
67248;SDS011;63247;54.300;18.592;2023-05-10T09:11:56;7.17;;;2.93;;
67248;SDS011;63247;54.300;18.592;2023-05-10T09:14:22;7.38;;;2.80;;
67248;SDS011;63247;54.300;18.592;2023-05-10T09:16:49;7.15;;;2.92;;
67248;SDS011;63247;54.300;18.592;2023-05-10T09:19:15;9.37;;;3.40;;
67248;SDS011;63247;54.300;18.592;2023-05-10T09:21:41;14.00;;;3.22;;
67248;SDS011;63247;54.300;18.592;2023-05-10T09:24:07;9.00;;;2.60;;
67248;SDS011;63247;54.300;18.592;2023-05-10T09:26:33;14.50;;;2.70;;
67248;SDS011;63247;54.300;18.592;2023-05-10T09:29:00;7.07;;;2.73;;
67248;SDS011;63247;54.300;18.592;2023-05-10T09:34:20;10.95;;;3.15;;
67248;SDS011;63247;54.300;18.592;2023-05-10T09:37:00;10.45;;;3.45;;
67248;SDS011;63247;54.300;18.592;2023-05-10T09:39:33;12.48;;;3.58;;
67248;SDS011;63247;54.300;18.592;2023-05-10T09:42:04;8.90;;;3.53;;
67248;SDS011;63247;54.300;18.592;2023-05-10T09:44:31;10.70;;;3.40;;
67248;SDS011;63247;54.300;18.592;2023-05-10T09:46:58;5.10;;;2.60;;
67248;SDS011;63247;54.300;18.592;2023-05-10T09:49:24;8.90;;;2.92;;
67248;SDS011;63247;54.300;18.592;2023-05-10T09:52:07;14.83;;;3.67;;
67248;SDS011;63247;54.300;18.592;2023-05-10T09:54:33;10.70;;;3.42;;
67248;SDS011;63247;54.300;18.592;2023-05-10T09:56:59;11.52;;;3.05;;
67248;SDS011;63247;54.300;18.592;2023-05-10T09:59:26;9.83;;;2.50;;
67248;SDS011;63247;54.300;18.592;2023-05-10T10:01:53;6.75;;;2.53;;
67248;SDS011;63247;54.300;18.592;2023-05-10T10:04:21;6.80;;;2.60;;
67248;SDS011;63247;54.300;18.592;2023-05-10T10:06:47;9.27;;;2.50;;
67248;SDS011;63247;54.300;18.592;2023-05-10T10:09:24;13.55;;;2.83;;
67248;SDS011;63247;54.300;18.592;2023-05-10T10:11:50;9.63;;;2.88;;
67248;SDS011;63247;54.300;18.592;2023-05-10T10:14:17;8.43;;;2.60;;
67248;SDS011;63247;54.300;18.592;2023-05-10T10:16:43;10.52;;;3.22;;
67248;SDS011;63247;54.300;18.592;2023-05-10T10:19:09;6.93;;;2.85;;
67248;SDS011;63247;54.300;18.592;2023-05-10T10:21:35;23.10;;;7.77;;
67248;SDS011;63247;54.300;18.592;2023-05-10T10:24:00;13.23;;;2.97;;
67248;SDS011;63247;54.300;18.592;2023-05-10T10:26:26;10.80;;;3.90;;
67248;SDS011;63247;54.300;18.592;2023-05-10T10:29:14;11.97;;;3.20;;
67248;SDS011;63247;54.300;18.592;2023-05-10T10:31:55;5.65;;;2.67;;
67248;SDS011;63247;54.300;18.592;2023-05-10T10:34:29;5.90;;;2.80;;
67248;SDS011;63247;54.300;18.592;2023-05-10T10:36:56;8.02;;;2.53;;
67248;SDS011;63247;54.300;18.592;2023-05-10T10:39:23;6.75;;;2.50;;
67248;SDS011;63247;54.300;18.592;2023-05-10T10:41:53;6.83;;;2.77;;
67248;SDS011;63247;54.300;18.592;2023-05-10T10:44:22;8.77;;;2.83;;
67248;SDS011;63247;54.300;18.592;2023-05-10T10:49:53;11.65;;;3.17;;
67248;SDS011;63247;54.300;18.592;2023-05-10T10:52:28;5.75;;;2.50;;
67248;SDS011;63247;54.300;18.592;2023-05-10T10:57:24;7.38;;;2.22;;
67248;SDS011;63247;54.300;18.592;2023-05-10T10:59:51;9.25;;;2.65;;
67248;SDS011;63247;54.300;18.592;2023-05-10T11:02:43;7.32;;;2.70;;
67248;SDS011;63247;54.300;18.592;2023-05-10T11:07:53;7.43;;;3.05;;
67248;SDS011;63247;54.300;18.592;2023-05-10T11:10:23;12.85;;;4.00;;
67248;SDS011;63247;54.300;18.592;2023-05-10T11:15:19;8.18;;;2.53;;
67248;SDS011;63247;54.300;18.592;2023-05-10T11:17:45;6.63;;;2.47;;
67248;SDS011;63247;54.300;18.592;2023-05-10T11:20:16;9.48;;;3.05;;
67248;SDS011;63247;54.300;18.592;2023-05-10T11:22:53;9.10;;;3.20;;
67248;SDS011;63247;54.300;18.592;2023-05-10T11:25:19;7.68;;;2.63;;
67248;SDS011;63247;54.300;18.592;2023-05-10T11:27:50;7.53;;;2.50;;
67248;SDS011;63247;54.300;18.592;2023-05-10T11:30:17;12.85;;;2.92;;
67248;SDS011;63247;54.300;18.592;2023-05-10T11:32:42;8.63;;;2.77;;
67248;SDS011;63247;54.300;18.592;2023-05-10T11:35:12;7.57;;;2.88;;
67248;SDS011;63247;54.300;18.592;2023-05-10T11:37:40;10.55;;;2.75;;
67248;SDS011;63247;54.300;18.592;2023-05-10T11:40:12;6.85;;;2.88;;
67248;SDS011;63247;54.300;18.592;2023-05-10T11:42:37;5.87;;;2.73;;
67248;SDS011;63247;54.300;18.592;2023-05-10T11:45:03;6.70;;;2.30;;
67248;SDS011;63247;54.300;18.592;2023-05-10T11:47:29;8.18;;;2.63;;
67248;SDS011;63247;54.300;18.592;2023-05-10T11:49:54;6.97;;;2.42;;
67248;SDS011;63247;54.300;18.592;2023-05-10T11:52:20;14.98;;;4.53;;
67248;SDS011;63247;54.300;18.592;2023-05-10T11:54:50;9.57;;;3.03;;
67248;SDS011;63247;54.300;18.592;2023-05-10T11:57:18;11.52;;;2.50;;
67248;SDS011;63247;54.300;18.592;2023-05-10T11:59:44;10.85;;;2.55;;
67248;SDS011;63247;54.300;18.592;2023-05-10T12:02:10;5.68;;;2.20;;
67248;SDS011;63247;54.300;18.592;2023-05-10T12:04:38;6.72;;;3.15;;
67248;SDS011;63247;54.300;18.592;2023-05-10T12:07:03;8.97;;;2.20;;
67248;SDS011;63247;54.300;18.592;2023-05-10T12:09:29;7.63;;;1.75;;
67248;SDS011;63247;54.300;18.592;2023-05-10T12:11:55;9.27;;;2.77;;
67248;SDS011;63247;54.300;18.592;2023-05-10T12:14:24;6.40;;;2.75;;
67248;SDS011;63247;54.300;18.592;2023-05-10T12:16:50;11.63;;;2.63;;
67248;SDS011;63247;54.300;18.592;2023-05-10T12:19:19;11.20;;;2.65;;
67248;SDS011;63247;54.300;18.592;2023-05-10T12:21:47;6.03;;;2.38;;
67248;SDS011;63247;54.300;18.592;2023-05-10T12:24:13;13.68;;;2.58;;
67248;SDS011;63247;54.300;18.592;2023-05-10T12:26:42;10.70;;;2.13;;
67248;SDS011;63247;54.300;18.592;2023-05-10T12:34:35;8.02;;;2.85;;
67248;SDS011;63247;54.300;18.592;2023-05-10T12:37:02;8.43;;;1.85;;
67248;SDS011;63247;54.300;18.592;2023-05-10T12:39:40;14.70;;;2.70;;
67248;SDS011;63247;54.300;18.592;2023-05-10T12:42:07;6.38;;;2.50;;
67248;SDS011;63247;54.300;18.592;2023-05-10T12:44:33;11.20;;;2.40;;
67248;SDS011;63247;54.300;18.592;2023-05-10T12:46:58;9.07;;;2.70;;
67248;SDS011;63247;54.300;18.592;2023-05-10T12:49:24;8.93;;;2.70;;
67248;SDS011;63247;54.300;18.592;2023-05-10T12:51:49;10.05;;;2.60;;
67248;SDS011;63247;54.300;18.592;2023-05-10T12:54:15;8.17;;;2.83;;
67248;SDS011;63247;54.300;18.592;2023-05-10T12:56:40;9.97;;;2.50;;
67248;SDS011;63247;54.300;18.592;2023-05-10T12:59:07;7.63;;;2.85;;
67248;SDS011;63247;54.300;18.592;2023-05-10T13:01:33;5.60;;;2.20;;
67248;SDS011;63247;54.300;18.592;2023-05-10T13:03:58;10.20;;;3.30;;
67248;SDS011;63247;54.300;18.592;2023-05-10T13:06:25;9.40;;;2.78;;
67248;SDS011;63247;54.300;18.592;2023-05-10T13:08:50;5.47;;;2.30;;
67248;SDS011;63247;54.300;18.592;2023-05-10T13:11:16;12.02;;;3.03;;
67248;SDS011;63247;54.300;18.592;2023-05-10T13:13:44;12.98;;;2.80;;
67248;SDS011;63247;54.300;18.592;2023-05-10T13:16:10;14.50;;;4.17;;
67248;SDS011;63247;54.300;18.592;2023-05-10T13:18:35;11.93;;;2.80;;
67248;SDS011;63247;54.300;18.592;2023-05-10T13:21:00;9.13;;;2.53;;
67248;SDS011;63247;54.300;18.592;2023-05-10T13:23:28;5.17;;;2.00;;
67248;SDS011;63247;54.300;18.592;2023-05-10T13:25:54;11.73;;;3.70;;
67248;SDS011;63247;54.300;18.592;2023-05-10T13:28:19;11.03;;;3.23;;
67248;SDS011;63247;54.300;18.592;2023-05-10T13:30:45;6.43;;;2.40;;
67248;SDS011;63247;54.300;18.592;2023-05-10T13:33:10;6.47;;;2.63;;
67248;SDS011;63247;54.300;18.592;2023-05-10T13:35:36;8.30;;;3.05;;
67248;SDS011;63247;54.300;18.592;2023-05-10T13:38:01;8.00;;;2.80;;
67248;SDS011;63247;54.300;18.592;2023-05-10T13:40:27;10.60;;;2.73;;
67248;SDS011;63247;54.300;18.592;2023-05-10T13:42:53;26.27;;;8.05;;
67248;SDS011;63247;54.300;18.592;2023-05-10T13:45:18;9.53;;;3.23;;
67248;SDS011;63247;54.300;18.592;2023-05-10T13:47:44;8.07;;;3.20;;
67248;SDS011;63247;54.300;18.592;2023-05-10T13:50:09;7.07;;;2.77;;
67248;SDS011;63247;54.300;18.592;2023-05-10T13:52:35;9.50;;;3.17;;
67248;SDS011;63247;54.300;18.592;2023-05-10T13:55:00;8.80;;;3.50;;
67248;SDS011;63247;54.300;18.592;2023-05-10T13:57:25;11.55;;;3.25;;
67248;SDS011;63247;54.300;18.592;2023-05-10T13:59:51;5.03;;;2.25;;
67248;SDS011;63247;54.300;18.592;2023-05-10T14:02:17;5.07;;;2.15;;
67248;SDS011;63247;54.300;18.592;2023-05-10T14:04:42;8.20;;;3.05;;
67248;SDS011;63247;54.300;18.592;2023-05-10T14:07:08;7.90;;;2.53;;
67248;SDS011;63247;54.300;18.592;2023-05-10T14:09:33;7.67;;;2.60;;
67248;SDS011;63247;54.300;18.592;2023-05-10T14:11:58;8.50;;;2.50;;
67248;SDS011;63247;54.300;18.592;2023-05-10T14:14:24;7.07;;;2.57;;
67248;SDS011;63247;54.300;18.592;2023-05-10T14:16:50;5.65;;;2.15;;
67248;SDS011;63247;54.300;18.592;2023-05-10T14:19:15;10.50;;;2.20;;
67248;SDS011;63247;54.300;18.592;2023-05-10T14:21:40;5.10;;;2.23;;
67248;SDS011;63247;54.300;18.592;2023-05-10T14:24:06;5.57;;;2.17;;
67248;SDS011;63247;54.300;18.592;2023-05-10T14:26:32;7.07;;;2.07;;
67248;SDS011;63247;54.300;18.592;2023-05-10T14:28:59;5.70;;;2.05;;
67248;SDS011;63247;54.300;18.592;2023-05-10T14:31:24;7.23;;;2.43;;
67248;SDS011;63247;54.300;18.592;2023-05-10T14:33:50;6.40;;;2.63;;
67248;SDS011;63247;54.300;18.592;2023-05-10T14:36:17;11.27;;;3.40;;
67248;SDS011;63247;54.300;18.592;2023-05-10T14:38:42;6.45;;;2.33;;
67248;SDS011;63247;54.300;18.592;2023-05-10T14:41:08;5.33;;;2.50;;
67248;SDS011;63247;54.300;18.592;2023-05-10T14:43:33;5.47;;;2.22;;
67248;SDS011;63247;54.300;18.592;2023-05-10T14:45:59;4.20;;;2.17;;
67248;SDS011;63247;54.300;18.592;2023-05-10T14:48:24;9.30;;;2.43;;
67248;SDS011;63247;54.300;18.592;2023-05-10T14:50:50;9.65;;;2.33;;
67248;SDS011;63247;54.300;18.592;2023-05-10T14:53:18;7.78;;;2.15;;
67248;SDS011;63247;54.300;18.592;2023-05-10T14:55:44;6.13;;;2.03;;
67248;SDS011;63247;54.300;18.592;2023-05-10T14:58:09;9.85;;;3.10;;
67248;SDS011;63247;54.300;18.592;2023-05-10T15:00:34;8.87;;;3.67;;
67248;SDS011;63247;54.300;18.592;2023-05-10T15:03:00;9.53;;;3.40;;
67248;SDS011;63247;54.300;18.592;2023-05-10T15:05:26;5.85;;;2.15;;
67248;SDS011;63247;54.300;18.592;2023-05-10T15:07:51;7.47;;;2.20;;
67248;SDS011;63247;54.300;18.592;2023-05-10T15:10:17;13.67;;;2.13;;